createdAt,value
2018-04-09T00:01:32.675Z,11.70
2018-04-09T00:04:01.295Z,11.60
2018-04-09T00:06:29.825Z,11.40
2018-04-09T00:08:57.589Z,11.40
2018-04-09T00:11:25.407Z,11.30
2018-04-09T00:13:53.939Z,11.00
2018-04-09T00:16:22.369Z,11.00
2018-04-09T00:18:50.962Z,10.90
2018-04-09T00:21:18.742Z,10.90
2018-04-09T00:23:46.534Z,10.90
2018-04-09T00:26:14.362Z,10.90
2018-04-09T00:28:42.131Z,10.80
2018-04-09T00:31:09.933Z,10.70
2018-04-09T00:33:37.776Z,10.60
2018-04-09T00:36:05.583Z,10.60
2018-04-09T00:38:34.135Z,10.50
2018-04-09T00:41:01.989Z,10.40
2018-04-09T00:43:29.771Z,10.50
2018-04-09T00:45:57.576Z,10.50
2018-04-09T00:48:25.398Z,10.40
2018-04-09T00:50:53.162Z,10.30
2018-04-09T00:53:29.792Z,10.30
2018-04-09T00:55:57.556Z,10.20
2018-04-09T00:58:25.339Z,10.20
2018-04-09T01:00:53.167Z,10.10
2018-04-09T01:03:20.934Z,10.00
2018-04-09T01:05:48.708Z,10.00
2018-04-09T01:08:16.571Z,9.90
2018-04-09T01:10:45.145Z,9.80
2018-04-09T01:13:12.905Z,9.80
2018-04-09T01:15:40.732Z,9.80
2018-04-09T01:18:09.303Z,9.70
2018-04-09T01:20:37.843Z,9.60
2018-04-09T01:23:05.687Z,9.60
2018-04-09T01:25:33.443Z,9.50
2018-04-09T01:28:01.211Z,9.50
2018-04-09T01:30:29.039Z,9.40
2018-04-09T01:32:57.583Z,9.20
2018-04-09T01:35:25.359Z,9.20
2018-04-09T01:37:53.258Z,9.10
2018-04-09T01:40:21.041Z,9.00
2018-04-09T01:42:48.804Z,9.00
2018-04-09T01:45:16.635Z,9.00
2018-04-09T01:47:45.170Z,9.00
2018-04-09T01:50:12.937Z,9.00
2018-04-09T01:52:40.750Z,9.10
2018-04-09T01:55:08.506Z,9.00
2018-04-09T01:57:37.031Z,8.90
2018-04-09T02:00:04.854Z,8.80
2018-04-09T02:02:32.619Z,8.80
2018-04-09T02:05:00.384Z,8.80
2018-04-09T02:07:28.237Z,8.70
2018-04-09T02:09:56.000Z,8.70
2018-04-09T02:12:24.559Z,8.60
2018-04-09T02:14:52.390Z,8.60
2018-04-09T02:17:20.165Z,8.60
2018-04-09T02:19:47.925Z,8.60
2018-04-09T02:22:15.769Z,8.50
2018-04-09T02:24:43.567Z,8.50
2018-04-09T02:27:11.340Z,8.40
2018-04-09T02:29:39.940Z,8.40
2018-04-09T02:32:08.259Z,8.40
2018-04-09T02:34:36.036Z,8.30
2018-04-09T02:37:03.873Z,8.30
2018-04-09T02:39:31.678Z,8.20
2018-04-09T02:42:00.227Z,8.20
2018-04-09T02:44:28.090Z,8.20
2018-04-09T02:46:55.856Z,8.20
2018-04-09T02:49:24.391Z,8.10
2018-04-09T02:51:52.264Z,8.10
2018-04-09T02:54:20.025Z,8.00
2018-04-09T02:56:47.828Z,8.00
2018-04-09T02:59:16.413Z,7.90
2018-04-09T03:01:44.206Z,7.90
2018-04-09T03:04:12.029Z,7.90
2018-04-09T03:06:39.873Z,7.80
2018-04-09T03:09:08.431Z,7.70
2018-04-09T03:11:36.191Z,7.70
2018-04-09T03:14:04.024Z,7.70
2018-04-09T03:16:31.789Z,7.70
2018-04-09T03:19:00.329Z,7.60
2018-04-09T03:21:28.159Z,7.60
2018-04-09T03:23:55.929Z,7.60
2018-04-09T03:26:23.685Z,7.50
2018-04-09T03:28:51.507Z,7.60
2018-04-09T03:31:19.320Z,7.60
2018-04-09T03:33:47.100Z,7.60
2018-04-09T03:36:14.956Z,7.50
2018-04-09T03:38:42.720Z,7.50
2018-04-09T03:41:10.486Z,7.40
2018-04-09T03:43:38.341Z,7.40
2018-04-09T03:46:06.108Z,7.40
2018-04-09T03:48:33.867Z,7.30
2018-04-09T03:51:02.484Z,7.20
2018-04-09T03:53:30.257Z,7.20
2018-04-09T03:55:58.022Z,7.20
2018-04-09T03:58:25.869Z,7.20
2018-04-09T04:00:54.466Z,7.20
2018-04-09T04:03:22.239Z,7.10
2018-04-09T04:05:50.826Z,7.10
2018-04-09T04:08:19.461Z,7.10
2018-04-09T04:10:47.276Z,7.10
2018-04-09T04:13:15.880Z,7.10
2018-04-09T04:15:55.468Z,7.10
2018-04-09T04:31:50.989Z,7.30
2018-04-09T04:34:18.776Z,7.30
2018-04-09T04:36:46.549Z,7.40
2018-04-09T04:39:14.404Z,7.50
2018-04-09T04:41:42.202Z,7.60
2018-04-09T04:44:09.984Z,7.70
2018-04-09T04:46:38.623Z,8.10
2018-04-09T04:49:06.392Z,8.10
2018-04-09T04:51:34.156Z,8.30
2018-04-09T04:54:01.981Z,8.70
2018-04-09T04:56:29.739Z,9.40
2018-04-09T04:58:57.520Z,10.00
2018-04-09T05:01:25.340Z,10.70
2018-04-09T05:03:53.882Z,12.40
2018-04-09T05:06:21.653Z,12.40
2018-04-09T05:08:49.479Z,13.20
2018-04-09T05:11:17.240Z,13.90
2018-04-09T05:13:45.042Z,14.30
2018-04-09T05:16:12.863Z,15.10
2018-04-09T05:18:40.655Z,15.60
2018-04-09T05:21:08.440Z,15.70
2018-04-09T05:23:36.292Z,16.40
2018-04-09T05:26:04.072Z,16.90
2018-04-09T05:28:31.867Z,17.40
2018-04-09T05:30:59.719Z,18.10
2018-04-09T05:33:27.757Z,18.90
2018-04-09T05:35:56.332Z,20.70
2018-04-09T05:38:24.200Z,20.70
2018-04-09T05:40:51.992Z,21.30
2018-04-09T05:43:20.575Z,22.80
2018-04-09T05:45:49.174Z,23.20
2018-04-09T05:48:16.997Z,23.20
2018-04-09T05:50:44.799Z,24.10
2018-04-09T05:53:12.662Z,24.60
2018-04-09T05:55:40.456Z,25.30
2018-04-09T05:58:08.231Z,26.00
2018-04-09T06:00:36.095Z,26.40
2018-04-09T06:03:03.869Z,26.70
2018-04-09T06:05:31.709Z,27.00
2018-04-09T06:08:00.417Z,27.90
2018-04-09T06:10:28.233Z,27.90
2018-04-09T06:12:56.063Z,28.40
2018-04-09T06:15:24.669Z,29.40
2018-04-09T06:17:52.466Z,29.30
2018-04-09T06:20:20.261Z,29.70
2018-04-09T06:22:48.883Z,30.00
2018-04-09T06:25:16.695Z,29.90
2018-04-09T06:30:17.388Z,30.40
2018-04-09T06:32:45.163Z,30.40
2018-04-09T06:35:12.940Z,30.70
2018-04-09T06:37:40.871Z,30.40
2018-04-09T06:40:08.644Z,30.10
2018-04-09T06:42:36.443Z,30.40
2018-04-09T06:45:04.326Z,31.00
2018-04-09T06:47:32.694Z,31.80
2018-04-09T06:50:01.301Z,32.40
2018-04-09T06:52:30.360Z,32.40
2018-04-09T06:54:58.195Z,32.50
2018-04-09T06:57:26.512Z,32.70
2018-04-09T07:02:26.424Z,33.60
2018-04-09T07:04:54.330Z,34.00
2018-04-09T07:07:23.359Z,34.20
2018-04-09T07:09:52.371Z,33.60
2018-04-09T07:12:20.178Z,32.90
2018-04-09T07:14:48.036Z,32.40
2018-04-09T07:17:18.140Z,32.10
2018-04-09T07:19:47.063Z,33.00
2018-04-09T07:24:49.196Z,34.40
2018-04-09T07:27:18.905Z,34.60
2018-04-09T07:29:46.960Z,34.60
2018-04-09T07:32:16.354Z,34.40
2018-04-09T07:37:16.242Z,34.30
2018-04-09T07:39:44.032Z,34.80
2018-04-09T07:42:13.190Z,35.70
2018-04-09T07:44:41.117Z,35.00
2018-04-09T07:49:42.125Z,34.90
2018-04-09T07:52:09.920Z,35.20
2018-04-09T07:54:37.768Z,36.20
2018-04-09T07:57:06.160Z,36.40
2018-04-09T07:59:33.941Z,36.70
2018-04-09T08:02:03.525Z,36.20
2018-04-09T08:04:32.233Z,35.50
2018-04-09T08:07:00.096Z,35.40
2018-04-09T08:09:29.033Z,35.30
2018-04-09T08:12:02.195Z,35.30
2018-04-09T08:14:31.590Z,36.00
2018-04-09T08:17:00.897Z,36.80
2018-04-09T08:22:05.652Z,37.90
2018-04-09T08:24:33.469Z,37.10
2018-04-09T08:27:02.124Z,35.40
2018-04-09T08:29:31.962Z,36.50
2018-04-09T08:32:00.424Z,36.40
2018-04-09T08:34:29.003Z,37.20
2018-04-09T08:36:58.382Z,37.10
2018-04-09T08:39:28.634Z,38.60
2018-04-09T08:41:56.443Z,38.60
2018-04-09T08:44:24.288Z,39.40
2018-04-09T08:46:52.103Z,39.40
2018-04-09T08:49:20.743Z,39.00
2018-04-09T08:51:49.426Z,37.70
2018-04-09T08:54:21.523Z,37.60
2018-04-09T08:56:50.759Z,36.00
2018-04-09T08:59:19.508Z,36.20
2018-04-09T09:01:50.722Z,36.20
2018-04-09T09:04:19.034Z,36.00
2018-04-09T09:06:46.865Z,34.90
2018-04-09T09:09:14.917Z,34.30
2018-04-09T09:11:43.326Z,35.10
2018-04-09T09:14:11.253Z,35.60
2018-04-09T09:16:39.069Z,35.10
2018-04-09T09:19:06.913Z,34.60
2018-04-09T09:21:34.728Z,32.10
2018-04-09T09:24:03.284Z,28.70
2018-04-09T09:26:31.133Z,28.60
2018-04-09T09:28:58.917Z,27.60
2018-04-09T09:31:26.708Z,27.10
2018-04-09T09:33:55.303Z,26.60
2018-04-09T09:36:23.086Z,26.60
2018-04-09T09:38:50.879Z,27.00
2018-04-09T09:41:18.727Z,27.00
2018-04-09T09:43:46.524Z,26.90
2018-04-09T09:46:15.079Z,25.70
2018-04-09T09:48:42.919Z,25.70
2018-04-09T09:51:10.711Z,25.00
2018-04-09T09:53:38.491Z,24.40
2018-04-09T09:56:06.315Z,24.20
2018-04-09T09:58:34.100Z,24.00
2018-04-09T10:01:01.896Z,23.90
2018-04-09T10:03:30.528Z,23.80
2018-04-09T10:05:58.299Z,23.80
2018-04-09T10:08:26.081Z,23.90
2018-04-09T10:10:53.917Z,23.50
2018-04-09T10:13:21.749Z,23.40
2018-04-09T10:15:49.513Z,23.20
2018-04-09T10:18:17.352Z,22.80
2018-04-09T10:20:45.903Z,22.70
2018-04-09T10:23:13.681Z,22.70
2018-04-09T10:25:41.517Z,22.40
2018-04-09T10:28:09.293Z,22.10
2018-04-09T10:30:37.082Z,22.10
2018-04-09T10:33:05.693Z,22.60
2018-04-09T10:35:33.504Z,22.60
2018-04-09T10:38:01.319Z,22.60
2018-04-09T10:40:29.166Z,22.60
2018-04-09T10:42:56.960Z,22.30
2018-04-09T10:45:24.740Z,22.20
2018-04-09T10:47:52.577Z,22.40
2018-04-09T10:50:20.345Z,22.40
2018-04-09T10:52:48.123Z,22.30
2018-04-09T10:55:15.968Z,22.30
2018-04-09T10:57:43.761Z,22.30
2018-04-09T11:00:11.569Z,22.30
2018-04-09T11:02:39.464Z,22.30
2018-04-09T11:05:07.238Z,22.50
2018-04-09T11:07:35.025Z,22.60
2018-04-09T11:10:03.672Z,22.20
2018-04-09T11:12:31.466Z,22.20
2018-04-09T11:14:59.296Z,22.20
2018-04-09T11:17:27.120Z,22.10
2018-04-09T11:19:54.918Z,22.20
2018-04-09T11:22:22.697Z,22.20
2018-04-09T11:24:50.557Z,22.20
2018-04-09T11:27:18.335Z,22.20
2018-04-09T11:29:46.131Z,22.40
2018-04-09T11:32:14.741Z,22.30
2018-04-09T11:34:42.518Z,22.30
2018-04-09T11:37:10.310Z,22.40
2018-04-09T11:39:38.193Z,22.40
2018-04-09T11:42:06.739Z,22.50
2018-04-09T11:44:34.524Z,22.50
2018-04-09T11:47:02.356Z,22.60
2018-04-09T11:49:30.135Z,22.60
2018-04-09T11:51:57.921Z,22.50
2018-04-09T11:54:26.508Z,22.70
2018-04-09T11:56:55.068Z,22.70
2018-04-09T11:59:22.867Z,22.70
2018-04-09T12:01:50.703Z,22.70
2018-04-09T12:04:18.489Z,22.60
2018-04-09T12:06:47.028Z,22.40
2018-04-09T12:09:14.866Z,22.40
2018-04-09T12:11:42.663Z,22.60
2018-04-09T12:14:10.444Z,22.70
2018-04-09T12:16:39.055Z,22.90
2018-04-09T12:19:06.875Z,22.80
2018-04-09T12:21:34.652Z,23.00
2018-04-09T12:24:03.261Z,23.00
2018-04-09T12:26:31.039Z,22.90
2018-04-09T12:28:58.816Z,23.10
2018-04-09T12:31:26.659Z,23.20
2018-04-09T12:33:54.429Z,23.10
2018-04-09T12:36:22.190Z,23.20
2018-04-09T12:38:50.033Z,23.30
2018-04-09T12:41:17.802Z,23.10
2018-04-09T12:43:45.586Z,23.10
2018-04-09T12:46:13.427Z,23.10
2018-04-09T12:48:41.204Z,23.10
2018-04-09T12:51:08.990Z,23.20
2018-04-09T12:53:36.815Z,23.20
2018-04-09T12:56:04.672Z,23.30
2018-04-09T12:58:32.475Z,23.40
2018-04-09T13:03:27.800Z,23.70
2018-04-09T13:05:55.580Z,23.70
2018-04-09T13:08:23.451Z,23.70
2018-04-09T13:10:52.017Z,23.80
2018-04-09T13:13:19.809Z,23.80
2018-04-09T13:15:48.402Z,23.80
2018-04-09T13:18:16.184Z,23.90
2018-04-09T13:20:43.980Z,24.00
2018-04-09T13:23:11.813Z,24.10
2018-04-09T13:25:39.580Z,24.10
2018-04-09T13:28:07.366Z,24.10
2018-04-09T13:30:35.213Z,24.10
2018-04-09T13:33:03.051Z,24.00
2018-04-09T13:35:30.847Z,24.00
2018-04-09T13:37:58.685Z,24.00
2018-04-09T13:40:26.505Z,23.90
2018-04-09T13:42:55.053Z,23.90
2018-04-09T13:45:22.900Z,23.90
2018-04-09T13:47:50.672Z,23.90
2018-04-09T13:50:18.459Z,23.90
2018-04-09T13:52:46.280Z,23.90
2018-04-09T13:55:14.060Z,23.90
2018-04-09T13:57:41.848Z,23.90
2018-04-09T14:00:09.717Z,24.10
2018-04-09T14:02:38.278Z,24.00
2018-04-09T14:05:06.052Z,24.00
2018-04-09T14:07:33.894Z,23.90
2018-04-09T14:10:01.676Z,23.70
2018-04-09T14:12:29.467Z,23.70
2018-04-09T14:14:57.309Z,23.80
2018-04-09T14:17:25.095Z,23.80
2018-04-09T14:19:52.884Z,23.90
2018-04-09T14:22:20.733Z,24.00
2018-04-09T14:24:48.509Z,24.10
2018-04-09T14:27:16.295Z,24.20
2018-04-09T14:29:44.121Z,24.20
2018-04-09T14:32:11.895Z,24.10
2018-04-09T14:34:39.655Z,24.10
2018-04-09T14:37:07.486Z,24.00
2018-04-09T14:39:36.015Z,24.00
2018-04-09T14:42:03.779Z,24.00
2018-04-09T14:44:31.592Z,24.10
2018-04-09T14:47:00.133Z,24.30
2018-04-09T14:49:27.904Z,24.30
2018-04-09T14:51:55.731Z,24.30
2018-04-09T14:54:23.504Z,24.20
2018-04-09T14:56:51.292Z,24.20
2018-04-09T14:59:19.128Z,24.00
2018-04-09T15:01:47.681Z,24.00
2018-04-09T15:04:15.481Z,24.00
2018-04-09T15:06:44.084Z,24.00
2018-04-09T15:09:11.855Z,24.00
2018-04-09T15:11:39.618Z,24.00
2018-04-09T15:14:07.467Z,24.00
2018-04-09T15:16:35.251Z,24.10
2018-04-09T15:19:03.820Z,24.00
2018-04-09T15:21:31.737Z,24.00
2018-04-09T15:23:59.566Z,24.00
2018-04-09T15:26:28.137Z,24.00
2018-04-09T15:28:55.965Z,23.90
2018-04-09T15:31:23.729Z,24.00
2018-04-09T15:33:51.550Z,24.00
2018-04-09T15:36:19.369Z,24.00
2018-04-09T15:38:47.134Z,24.00
2018-04-09T15:41:14.904Z,24.00
2018-04-09T15:43:42.724Z,24.00
2018-04-09T15:46:10.486Z,24.00
2018-04-09T15:48:38.269Z,24.00
2018-04-09T15:51:06.101Z,23.90
2018-04-09T15:53:33.874Z,23.90
2018-04-09T15:56:01.647Z,23.90
2018-04-09T15:58:30.210Z,23.90
2018-04-09T16:00:57.973Z,23.90
2018-04-09T16:03:25.776Z,23.80
2018-04-09T16:05:53.611Z,23.80
2018-04-09T16:08:21.377Z,23.80
2018-04-09T16:10:49.143Z,23.80
2018-04-09T16:13:16.963Z,23.80
2018-04-09T16:15:45.499Z,23.80
2018-04-09T16:18:14.049Z,23.70
2018-04-09T16:20:41.961Z,23.70
2018-04-09T16:23:09.734Z,23.70
2018-04-09T16:25:38.287Z,23.60
2018-04-09T16:28:06.112Z,23.50
2018-04-09T16:30:33.888Z,23.50
2018-04-09T16:33:01.699Z,23.50
2018-04-09T16:35:30.298Z,23.40
2018-04-09T16:37:58.072Z,23.40
2018-04-09T16:40:25.850Z,23.40
2018-04-09T16:42:53.675Z,23.30
2018-04-09T16:45:22.210Z,23.20
2018-04-09T16:47:50.050Z,23.20
2018-04-09T16:50:17.896Z,23.10
2018-04-09T16:52:46.438Z,23.00
2018-04-09T16:55:14.212Z,23.00
2018-04-09T16:57:42.064Z,22.90
2018-04-09T17:00:09.860Z,22.90
2018-04-09T17:02:38.391Z,22.80
2018-04-09T17:05:06.290Z,22.70
2018-04-09T17:07:34.842Z,22.60
2018-04-09T17:10:02.613Z,22.50
2018-04-09T17:12:30.461Z,22.50
2018-04-09T17:14:58.237Z,22.30
2018-04-09T17:17:26.010Z,22.20
2018-04-09T17:19:53.877Z,22.10
2018-04-09T17:22:22.480Z,21.90
2018-04-09T17:24:51.026Z,21.70
2018-04-09T17:27:18.876Z,21.70
2018-04-09T17:29:46.660Z,21.60
2018-04-09T17:32:14.445Z,21.50
2018-04-09T17:34:43.040Z,21.40
2018-04-09T17:37:10.827Z,21.40
2018-04-09T17:39:38.620Z,21.30
2018-04-09T17:42:06.452Z,21.20
2018-04-09T17:44:34.249Z,21.20
2018-04-09T17:47:02.045Z,21.00
2018-04-09T17:49:30.639Z,20.80
2018-04-09T17:51:58.433Z,20.80
2018-04-09T17:54:26.240Z,20.70
2018-04-09T17:56:54.977Z,20.50
2018-04-09T17:59:22.788Z,20.40
2018-04-09T18:01:51.387Z,20.30
2018-04-09T18:04:19.302Z,20.30
2018-04-09T18:06:47.110Z,20.20
2018-04-09T18:09:14.892Z,20.10
2018-04-09T18:11:42.927Z,20.00
2018-04-09T18:14:11.490Z,20.00
2018-04-09T18:16:39.273Z,19.90
2018-04-09T18:19:07.881Z,19.80
2018-04-09T18:21:35.679Z,19.80
2018-04-09T18:24:03.477Z,19.70
2018-04-09T18:26:32.671Z,19.60
2018-04-09T18:29:01.672Z,19.50
2018-04-09T18:31:30.396Z,19.40
2018-04-09T18:33:58.264Z,19.30
2018-04-09T18:36:26.043Z,19.30
2018-04-09T18:38:53.834Z,19.20
2018-04-09T18:41:22.452Z,19.10
2018-04-09T18:43:50.236Z,19.10
2018-04-09T18:46:18.834Z,18.90
2018-04-09T18:48:46.670Z,18.90
2018-04-09T18:51:14.448Z,18.80
2018-04-09T18:53:42.274Z,18.90
2018-04-09T18:56:10.122Z,18.80
2018-04-09T18:58:38.687Z,18.70
2018-04-09T19:01:07.321Z,18.60
2018-04-09T19:03:35.259Z,18.60
2018-04-09T19:06:22.586Z,18.50
2018-04-09T19:08:50.480Z,18.40
2018-04-09T19:11:19.050Z,18.30
2018-04-09T19:13:46.858Z,18.20
2018-04-09T19:16:15.384Z,18.30
2018-04-09T19:18:43.341Z,18.20
2018-04-09T19:21:12.135Z,18.10
2018-04-09T19:23:40.079Z,18.00
2018-04-09T19:26:08.680Z,17.80
2018-04-09T19:28:36.459Z,17.80
2018-04-09T19:31:04.366Z,17.80
2018-04-09T19:33:32.221Z,17.70
2018-04-09T19:36:05.845Z,17.70
2018-04-09T19:38:40.288Z,17.70
2018-04-09T19:41:08.149Z,17.70
2018-04-09T19:43:36.955Z,17.60
2018-04-09T19:46:04.753Z,17.70
2018-04-09T19:48:33.453Z,17.50
2018-04-09T19:51:02.081Z,17.40
2018-04-09T19:53:29.908Z,17.40
2018-04-09T19:55:58.573Z,17.20
2018-04-09T19:58:26.356Z,17.20
2018-04-09T20:00:55.826Z,17.20
2018-04-09T20:03:23.834Z,17.20
2018-04-09T20:05:51.627Z,17.20
2018-04-09T20:08:19.439Z,17.20
2018-04-09T20:10:48.751Z,17.30
2018-04-09T20:13:17.334Z,17.20
2018-04-09T20:15:46.059Z,17.10
2018-04-09T20:18:14.731Z,17.10
2018-04-09T20:20:42.526Z,17.10
2018-04-09T20:23:10.625Z,17.00
2018-04-09T20:25:39.216Z,17.00
2018-04-09T20:28:07.382Z,17.00
2018-04-09T20:30:35.961Z,16.90
2018-04-09T20:33:04.593Z,16.90
2018-04-09T20:35:32.393Z,16.90
2018-04-09T20:38:00.986Z,17.00
2018-04-09T20:40:29.611Z,17.10
2018-04-09T20:42:57.414Z,17.10
2018-04-09T20:45:25.209Z,17.10
2018-04-09T20:47:53.080Z,17.00
2018-04-09T20:50:20.858Z,17.00
2018-04-09T20:52:48.628Z,16.90
2018-04-09T20:55:16.468Z,16.90
2018-04-09T20:57:44.246Z,16.80
2018-04-09T21:00:12.014Z,16.70
2018-04-09T21:02:39.842Z,16.70
2018-04-09T21:05:07.626Z,16.70
2018-04-09T21:07:35.689Z,16.60
2018-04-09T21:10:04.622Z,16.60
2018-04-09T21:12:32.402Z,16.70
2018-04-09T21:15:00.208Z,16.60
2018-04-09T21:17:28.034Z,16.50
2018-04-09T21:19:56.588Z,16.20
2018-04-09T21:22:24.366Z,16.20
2018-04-09T21:24:52.212Z,16.10
2018-04-09T21:27:20.027Z,16.00
2018-04-09T21:29:47.839Z,16.10
2018-04-09T21:32:15.666Z,16.10
2018-04-09T21:34:43.471Z,16.10
2018-04-09T21:37:11.890Z,16.00
2018-04-09T21:39:39.719Z,16.00
2018-04-09T21:42:07.521Z,15.90
2018-04-09T21:44:35.961Z,15.90
2018-04-09T21:47:04.018Z,15.90
2018-04-09T21:49:31.777Z,15.90
2018-04-09T21:51:59.546Z,15.80
2018-04-09T21:54:27.372Z,15.70
2018-04-09T21:56:55.146Z,15.70
2018-04-09T21:59:22.947Z,15.60
2018-04-09T22:01:50.773Z,15.50
2018-04-09T22:04:18.579Z,15.50
2018-04-09T22:06:47.117Z,15.40
2018-04-09T22:09:14.990Z,15.40
2018-04-09T22:11:42.957Z,15.40
2018-04-09T22:14:10.745Z,15.40
2018-04-09T22:16:39.333Z,15.40
2018-04-09T22:19:07.892Z,15.30
2018-04-09T22:21:35.674Z,15.30
2018-04-09T22:24:04.280Z,15.30
2018-04-09T22:26:32.063Z,15.20
2018-04-09T22:28:59.861Z,15.20
2018-04-09T22:31:27.689Z,15.20
2018-04-09T22:33:55.465Z,15.10
2018-04-09T22:36:23.241Z,15.10
2018-04-09T22:38:51.099Z,15.10
2018-04-09T22:41:19.636Z,15.10
2018-04-09T22:43:47.409Z,15.10
2018-04-09T22:46:15.998Z,15.00
2018-04-09T22:48:43.774Z,15.00
2018-04-09T22:51:11.541Z,15.00
2018-04-09T22:53:39.381Z,15.00
2018-04-09T22:56:07.163Z,15.00
2018-04-09T22:58:34.942Z,15.00
2018-04-09T23:01:02.766Z,15.00
2018-04-09T23:03:30.537Z,15.00
2018-04-09T23:05:58.297Z,15.00
2018-04-09T23:08:26.129Z,15.00
2018-04-09T23:10:54.674Z,14.80
2018-04-09T23:13:22.443Z,14.80
2018-04-09T23:15:50.261Z,14.70
2018-04-09T23:18:18.027Z,14.70
2018-04-09T23:20:45.797Z,14.60
2018-04-09T23:23:13.628Z,14.60
2018-04-09T23:25:42.177Z,14.60
2018-04-09T23:28:09.941Z,14.50
2018-04-09T23:30:37.760Z,14.50
2018-04-09T23:33:05.527Z,14.50
2018-04-09T23:35:33.297Z,14.40
2018-04-09T23:38:01.109Z,14.40
2018-04-09T23:40:29.635Z,14.40
2018-04-09T23:43:00.618Z,14.40
2018-04-09T23:45:29.208Z,14.30
2018-04-09T23:47:57.740Z,14.20
2018-04-09T23:50:25.568Z,14.20
2018-04-09T23:52:53.359Z,14.10
2018-04-09T23:55:21.128Z,14.10
2018-04-09T23:57:48.953Z,14.10
